Terminal Aerodrome Forecast
Issued by NWS

Home | Current Version | Previous Version | Text Only | Print | Product List | Glossary On
Versions: 1 2 3 4 5 6 7 8 9 10 11 12
000
FTUS46 KMTR 180546
TAFSNS
TAF
KSNS 180546Z 1806/1906 VRB03KT P6SM OVC200
     FM180800 12010KT P6SM OVC100
     FM181700 12025G34KT P6SM SCT060 OVC080
     FM190000 12017G24KT 4SM RA BR OVC060
     FM190300 26012KT P6SM -SHRA OVC030=

USA.gov is the U.S. government's official web portal to all federal, state and local government web resources and services.